Time;durP1;ratioP1;P1;durP2;ratioP2;P2;SDS_P1;SDS_P2;PMS_P1;PMS_P2;Temp;Humidity;BMP_temperature;BMP_pressure;BME280_temperature;BME280_humidity;BME280_pressure;Samples;Min_cycle;Max_cycle;Signal;HPM_P1;HPM_P2
2021/12/14 00:01:36;;;;;;;2.83;2.63;;;10.20;99.90;;;;;;5046607;28;20450;-86
2021/12/14 00:04:09;;;;;;;4.30;2.90;;;10.50;99.90;;;;;;5073465;28;20513;-83
2021/12/14 00:06:37;;;;;;;2.73;2.50;;;10.80;99.90;;;;;;5074554;28;20557;-86
2021/12/14 00:09:08;;;;;;;3.10;2.80;;;10.80;99.90;;;;;;5066515;28;20454;-84
2021/12/14 00:17:25;;;;;;;2.77;2.57;;;10.60;99.90;;;;;;5059355;28;20455;-82
2021/12/14 00:19:56;;;;;;;3.20;2.90;;;10.70;99.90;;;;;;5074155;28;20450;-85
2021/12/14 00:25:10;;;;;;;3.60;2.87;;;10.70;99.90;;;;;;5047258;28;21035;-84
2021/12/14 00:27:37;;;;;;;3.43;2.63;;;10.80;99.90;;;;;;5054640;28;20439;-85
2021/12/14 00:30:07;;;;;;;3.50;3.20;;;10.80;99.90;;;;;;5051386;28;20459;-84
2021/12/14 00:32:36;;;;;;;3.50;3.10;;;10.80;99.90;;;;;;5036479;28;20536;-85
2021/12/14 00:35:12;;;;;;;2.57;2.37;;;10.80;99.90;;;;;;5038957;28;20479;-83
2021/12/14 00:37:49;;;;;;;4.20;2.60;;;10.70;99.90;;;;;;5055451;28;20451;-84
2021/12/14 00:40:25;;;;;;;4.67;2.87;;;10.70;99.90;;;;;;5056498;28;20486;-84
2021/12/14 00:42:54;;;;;;;3.27;2.97;;;10.50;99.90;;;;;;5046198;28;20470;-83
2021/12/14 00:45:25;;;;;;;2.97;2.50;;;10.60;99.90;;;;;;5046718;28;20476;-83
2021/12/14 00:47:52;;;;;;;3.10;2.73;;;10.50;99.90;;;;;;5061006;28;20486;-85
2021/12/14 00:50:22;;;;;;;3.70;3.07;;;10.50;99.90;;;;;;5060739;28;20460;-84
2021/12/14 00:52:49;;;;;;;2.70;2.50;;;10.60;99.90;;;;;;5046686;28;20480;-83
2021/12/14 00:55:24;;;;;;;3.73;2.70;;;10.60;99.90;;;;;;5051064;28;20480;-84
2021/12/14 00:57:52;;;;;;;3.70;2.87;;;10.60;99.90;;;;;;5076857;28;20531;-84
2021/12/14 01:00:24;;;;;;;3.93;3.17;;;10.40;99.90;;;;;;5085113;28;20441;-83
2021/12/14 01:02:51;;;;;;;4.47;3.30;;;10.40;99.90;;;;;;5067669;28;20546;-83
2021/12/14 01:05:23;;;;;;;3.57;3.23;;;10.40;99.90;;;;;;5082661;28;20536;-83
2021/12/14 01:07:53;;;;;;;3.33;3.03;;;10.50;99.90;;;;;;5059057;28;21089;-82
2021/12/14 01:10:38;;;;;;;4.03;3.03;;;10.50;99.90;;;;;;5065601;28;20452;-82
2021/12/14 01:13:08;;;;;;;3.47;3.17;;;10.30;99.90;;;;;;5055605;28;20521;-82
2021/12/14 01:16:00;;;;;;;3.90;3.10;;;10.10;99.90;;;;;;5054534;28;20861;-84
2021/12/14 01:24:59;;;;;;;3.83;3.37;;;10.20;99.90;;;;;;5057566;28;20466;-81
2021/12/14 01:27:12;;;;;;;3.13;2.87;;;10.60;99.90;;;;;;5054352;28;20455;-82
2021/12/14 01:29:41;;;;;;;2.87;2.67;;;10.80;99.90;;;;;;5039080;28;20455;-81
2021/12/14 01:32:09;;;;;;;3.50;3.20;;;10.70;99.90;;;;;;5038757;28;20460;-84
2021/12/14 01:34:37;;;;;;;3.90;3.20;;;10.80;99.90;;;;;;5051896;28;20454;-83
2021/12/14 01:37:15;;;;;;;4.20;3.50;;;10.60;99.90;;;;;;5052639;28;20486;-85
2021/12/14 01:42:26;;;;;;;4.60;3.10;;;10.40;99.90;;;;;;5051354;28;20463;-85
2021/12/14 01:45:01;;;;;;;3.70;3.00;;;10.80;99.90;;;;;;5051378;28;21250;-84
2021/12/14 01:47:36;;;;;;;3.20;2.83;;;10.90;99.90;;;;;;5037053;28;20472;-83
2021/12/14 01:50:10;;;;;;;4.07;3.10;;;10.70;99.90;;;;;;5051100;28;20517;-83
2021/12/14 01:52:39;;;;;;;4.13;3.03;;;10.80;99.90;;;;;;5040516;28;20512;-83
2021/12/14 01:55:18;;;;;;;3.03;2.60;;;10.60;99.90;;;;;;5036363;28;20580;-83
2021/12/14 01:57:46;;;;;;;4.57;3.77;;;10.40;99.90;;;;;;5057781;28;20574;-83
2021/12/14 02:00:39;;;;;;;4.80;3.27;;;10.20;99.90;;;;;;5054986;28;20547;-83
2021/12/14 02:03:09;;;;;;;3.10;2.80;;;10.10;99.90;;;;;;5058785;28;20522;-84
2021/12/14 02:05:41;;;;;;;4.27;3.30;;;10.10;99.90;;;;;;5040579;28;20476;-83
2021/12/14 02:08:24;;;;;;;4.10;3.40;;;10.10;99.90;;;;;;5047226;28;20452;-85
2021/12/14 02:10:53;;;;;;;4.30;3.80;;;10.20;99.90;;;;;;5038642;28;20460;-84
2021/12/14 02:13:31;;;;;;;4.53;4.10;;;10.70;99.90;;;;;;5035113;28;21059;-82
2021/12/14 02:15:59;;;;;;;3.50;3.10;;;10.90;99.90;;;;;;5047631;28;20485;-85
2021/12/14 02:18:49;;;;;;;3.60;3.20;;;11.00;99.90;;;;;;5047690;28;20455;-83
2021/12/14 02:21:17;;;;;;;4.10;3.50;;;10.80;99.90;;;;;;5037365;28;20460;-81
2021/12/14 02:23:48;;;;;;;5.40;3.57;;;10.60;99.90;;;;;;5051013;28;20809;-83
2021/12/14 02:26:19;;;;;;;5.67;4.27;;;10.40;99.90;;;;;;5033755;28;20476;-83
2021/12/14 02:28:46;;;;;;;4.80;3.90;;;10.60;99.90;;;;;;5050324;28;20458;-83
2021/12/14 02:31:17;;;;;;;4.80;4.13;;;10.80;99.90;;;;;;5048970;28;20452;-82
2021/12/14 02:33:48;;;;;;;4.40;3.70;;;10.80;99.90;;;;;;5047061;28;20484;-84
2021/12/14 02:36:25;;;;;;;4.73;3.90;;;10.80;99.90;;;;;;5048548;28;21072;-83
2021/12/14 02:39:05;;;;;;;5.60;3.73;;;10.80;99.90;;;;;;5039304;28;20444;-85
2021/12/14 02:41:44;;;;;;;6.10;4.60;;;10.80;99.90;;;;;;5036673;28;21471;-85
2021/12/14 02:44:13;;;;;;;5.23;4.10;;;10.60;99.90;;;;;;5055803;28;20457;-83
2021/12/14 02:46:45;;;;;;;5.13;4.10;;;10.30;99.90;;;;;;5036569;28;20513;-84
2021/12/14 02:49:17;;;;;;;6.10;4.30;;;10.40;99.90;;;;;;5034857;28;20479;-84
2021/12/14 02:51:50;;;;;;;5.20;3.90;;;10.40;99.90;;;;;;5050543;28;20472;-84
2021/12/14 02:54:22;;;;;;;5.43;4.60;;;10.40;99.90;;;;;;5049315;28;20506;-85
2021/12/14 02:56:56;;;;;;;6.07;4.83;;;10.70;99.90;;;;;;5035801;28;20722;-83
2021/12/14 02:59:27;;;;;;;8.17;5.53;;;10.50;99.90;;;;;;5047852;28;20469;-85
2021/12/14 03:02:03;;;;;;;6.07;4.80;;;10.30;99.90;;;;;;5034129;28;20474;-83
2021/12/14 03:04:32;;;;;;;6.30;5.10;;;10.50;99.90;;;;;;5034423;28;20462;-83
2021/12/14 03:07:01;;;;;;;6.47;5.63;;;10.70;99.90;;;;;;5037091;28;20480;-85
2021/12/14 03:12:13;;;;;;;7.40;6.03;;;10.50;99.90;;;;;;5049242;28;20451;-81
2021/12/14 03:14:48;;;;;;;6.87;5.57;;;10.60;99.90;;;;;;5051269;28;20477;-83
2021/12/14 03:17:16;;;;;;;8.97;6.87;;;10.70;99.90;;;;;;5041692;28;20510;-82
2021/12/14 03:19:51;;;;;;;8.37;6.50;;;10.60;99.90;;;;;;5048330;28;20511;-83
2021/12/14 03:22:27;;;;;;;8.07;6.53;;;10.70;99.90;;;;;;5051961;28;20828;-82
2021/12/14 03:24:55;;;;;;;8.73;6.80;;;10.70;99.90;;;;;;5049135;28;20463;-83
2021/12/14 03:27:22;;;;;;;7.67;6.27;;;10.50;99.90;;;;;;5049883;28;20455;-82
2021/12/14 03:29:49;;;;;;;7.73;6.63;;;10.40;99.90;;;;;;5037748;28;20470;-85
2021/12/14 03:32:16;;;;;;;9.37;6.93;;;10.30;99.90;;;;;;5049373;28;20544;-83
2021/12/14 03:34:43;;;;;;;7.90;6.83;;;10.20;99.90;;;;;;5056820;28;22104;-83
2021/12/14 03:37:21;;;;;;;9.90;6.90;;;10.20;99.90;;;;;;5037437;28;20463;-83
2021/12/14 03:39:57;;;;;;;9.23;7.10;;;10.50;99.90;;;;;;5038620;28;20447;-83
2021/12/14 03:42:37;;;;;;;11.43;7.00;;;10.80;99.90;;;;;;5054848;28;20452;-82
2021/12/14 03:45:18;;;;;;;8.90;7.20;;;10.70;99.90;;;;;;5055905;28;20502;-83
2021/12/14 03:47:54;;;;;;;10.07;7.73;;;10.70;99.90;;;;;;5054846;28;20874;-83
2021/12/14 03:50:26;;;;;;;8.50;6.97;;;11.00;99.90;;;;;;5056060;28;20505;-82
2021/12/14 03:52:53;;;;;;;9.93;8.30;;;10.80;99.90;;;;;;5041916;28;20551;-84
2021/12/14 03:55:26;;;;;;;11.43;9.37;;;10.90;99.90;;;;;;5040801;28;20483;-84
2021/12/14 03:57:54;;;;;;;9.10;6.50;;;10.70;99.90;;;;;;5040001;28;20463;-82
2021/12/14 04:00:35;;;;;;;9.97;7.50;;;10.40;99.90;;;;;;5057008;28;20495;-83
2021/12/14 04:03:05;;;;;;;8.40;7.40;;;10.20;99.90;;;;;;5055612;28;20462;-83
2021/12/14 04:05:34;;;;;;;11.10;8.07;;;10.10;99.90;;;;;;5055468;28;20487;-85
2021/12/14 04:08:02;;;;;;;9.07;7.93;;;10.10;99.90;;;;;;5038887;28;20972;-83
2021/12/14 04:10:32;;;;;;;10.40;7.60;;;10.00;99.90;;;;;;5055089;28;20448;-84
2021/12/14 04:12:59;;;;;;;9.73;7.63;;;10.00;99.90;;;;;;5058403;28;20452;-84
2021/12/14 04:15:27;;;;;;;10.60;7.47;;;10.00;99.90;;;;;;5062010;28;20567;-85
2021/12/14 04:17:54;;;;;;;10.03;7.57;;;10.00;99.90;;;;;;5059696;28;20455;-85
2021/12/14 04:20:28;;;;;;;8.97;6.80;;;10.00;99.90;;;;;;5046864;28;20448;-83
2021/12/14 04:22:56;;;;;;;9.00;6.53;;;10.00;99.90;;;;;;5060175;28;20455;-87
2021/12/14 04:25:28;;;;;;;9.57;7.40;;;10.00;99.90;;;;;;5053563;28;22450;-82
2021/12/14 04:27:56;;;;;;;9.70;7.17;;;10.10;99.90;;;;;;5049842;28;20454;-83
2021/12/14 04:30:25;;;;;;;9.70;7.30;;;10.00;99.90;;;;;;5049405;28;20457;-84
2021/12/14 04:32:56;;;;;;;8.73;7.23;;;10.00;99.90;;;;;;5049229;28;20444;-84
2021/12/14 04:35:23;;;;;;;10.07;7.60;;;10.00;99.90;;;;;;5043564;28;20988;-83
2021/12/14 04:37:54;;;;;;;10.00;7.63;;;10.00;99.90;;;;;;5034585;28;20474;-85
2021/12/14 04:52:00;;;;;;;10.77;8.03;;;10.20;99.90;;;;;;5050414;28;20487;-81
2021/12/14 04:54:37;;;;;;;9.67;7.13;;;10.50;99.90;;;;;;5038077;28;20486;-81
2021/12/14 04:57:18;;;;;;;10.53;8.23;;;10.40;99.90;;;;;;5051207;28;20490;-83
2021/12/14 04:59:47;;;;;;;10.50;8.00;;;10.30;99.90;;;;;;5038167;28;20865;-83
2021/12/14 05:02:22;;;;;;;11.53;8.10;;;10.20;99.90;;;;;;5050933;28;20893;-84
2021/12/14 05:04:50;;;;;;;10.93;8.20;;;10.20;99.90;;;;;;5054775;28;20459;-85
2021/12/14 05:10:04;;;;;;;12.67;8.20;;;10.10;99.90;;;;;;5048831;28;21338;-87
2021/12/14 05:12:34;;;;;;;14.40;9.43;;;10.10;99.90;;;;;;5035656;28;20452;-83
2021/12/14 05:15:08;;;;;;;13.47;9.13;;;10.00;99.90;;;;;;5040104;28;20492;-85
2021/12/14 05:17:39;;;;;;;12.90;9.90;;;10.10;99.90;;;;;;5054920;28;20452;-85
2021/12/14 05:20:08;;;;;;;14.30;9.47;;;10.00;99.90;;;;;;5051884;28;20482;-85
2021/12/14 05:22:38;;;;;;;10.23;7.67;;;10.00;99.90;;;;;;5050857;28;20480;-82
2021/12/14 05:25:27;;;;;;;11.00;7.90;;;9.90;99.90;;;;;;5036923;28;20474;-84
2021/12/14 05:27:58;;;;;;;12.93;10.37;;;9.90;99.90;;;;;;5050648;28;20468;-85
2021/12/14 05:30:31;;;;;;;12.23;8.93;;;9.90;99.90;;;;;;5050246;28;21029;-83
2021/12/14 05:33:02;;;;;;;13.07;9.40;;;9.90;99.90;;;;;;5036036;28;20450;-84
2021/12/14 05:35:30;;;;;;;16.10;9.40;;;9.90;99.90;;;;;;5036201;28;20582;-84
2021/12/14 05:37:58;;;;;;;12.90;8.57;;;9.90;99.90;;;;;;5044424;28;20460;-83
2021/12/14 05:43:14;;;;;;;12.70;8.77;;;9.90;99.90;;;;;;5052226;28;20468;-84
2021/12/14 05:45:45;;;;;;;11.93;7.90;;;9.90;99.90;;;;;;5036933;28;20646;-86
2021/12/14 05:48:37;;;;;;;14.17;8.67;;;9.80;99.90;;;;;;5035328;28;20459;-84
2021/12/14 05:51:08;;;;;;;13.30;8.70;;;9.90;99.90;;;;;;5050151;28;20463;-86
2021/12/14 05:53:38;;;;;;;13.73;9.10;;;10.00;99.90;;;;;;5039507;28;20467;-86
2021/12/14 05:56:15;;;;;;;15.87;10.27;;;9.90;99.90;;;;;;5051233;28;21087;-87
2021/12/14 05:58:43;;;;;;;14.73;8.80;;;9.90;99.90;;;;;;5051975;28;20452;-84
2021/12/14 06:01:13;;;;;;;14.63;9.90;;;9.80;99.90;;;;;;5049805;28;20456;-84
2021/12/14 06:03:53;;;;;;;12.07;8.30;;;9.80;99.90;;;;;;5037515;28;20454;-84
2021/12/14 06:06:25;;;;;;;13.13;8.57;;;9.80;99.90;;;;;;5051509;28;20558;-85
2021/12/14 06:09:03;;;;;;;12.40;8.47;;;9.80;99.90;;;;;;5048387;28;20471;-86
2021/12/14 06:11:31;;;;;;;12.10;8.10;;;9.80;99.90;;;;;;5040229;28;20463;-84
2021/12/14 06:13:58;;;;;;;13.83;8.90;;;9.70;99.90;;;;;;5053928;28;20488;-83
2021/12/14 06:16:30;;;;;;;13.27;7.57;;;9.70;99.90;;;;;;5037338;28;20481;-86
2021/12/14 06:19:13;;;;;;;13.90;8.53;;;9.70;99.90;;;;;;5037768;28;20522;-84
2021/12/14 06:21:41;;;;;;;13.00;8.37;;;9.70;99.90;;;;;;5038495;28;20453;-84
2021/12/14 06:24:10;;;;;;;12.87;8.93;;;9.70;99.90;;;;;;5050797;28;20952;-85
2021/12/14 06:26:41;;;;;;;15.17;9.17;;;9.70;99.90;;;;;;5050079;28;20471;-84
2021/12/14 06:29:12;;;;;;;14.80;7.80;;;9.70;99.90;;;;;;5034750;28;20459;-85
2021/12/14 06:31:41;;;;;;;14.00;8.97;;;9.60;99.90;;;;;;5036039;28;21387;-85
2021/12/14 06:34:22;;;;;;;11.40;7.87;;;9.70;99.90;;;;;;5048972;28;21683;-86
2021/12/14 06:37:03;;;;;;;12.37;8.07;;;9.60;99.90;;;;;;5049379;28;20473;-84
2021/12/14 06:39:56;;;;;;;13.50;8.53;;;9.60;99.90;;;;;;5039956;28;20480;-86
2021/12/14 06:42:25;;;;;;;14.67;9.20;;;9.70;99.90;;;;;;5039346;28;20484;-86
2021/12/14 06:45:05;;;;;;;12.03;8.80;;;9.70;99.90;;;;;;5052689;28;20469;-84
2021/12/14 06:47:32;;;;;;;11.93;7.73;;;9.70;99.90;;;;;;5035478;28;20479;-85
2021/12/14 06:50:08;;;;;;;13.60;8.37;;;9.70;99.90;;;;;;5035925;28;20887;-84
2021/12/14 06:52:39;;;;;;;13.10;8.00;;;9.70;99.90;;;;;;5036756;28;20448;-84
2021/12/14 06:55:07;;;;;;;15.20;7.80;;;9.70;99.90;;;;;;5031749;28;20679;-86
2021/12/14 06:57:34;;;;;;;12.30;8.27;;;9.70;99.90;;;;;;5033232;28;20459;-85
2021/12/14 07:00:04;;;;;;;13.20;8.00;;;9.70;99.90;;;;;;5048078;28;21083;-83
2021/12/14 07:02:31;;;;;;;13.87;9.23;;;9.70;99.90;;;;;;5035346;28;20453;-83
2021/12/14 07:04:58;;;;;;;10.53;7.70;;;9.60;99.90;;;;;;5036980;28;20490;-85
2021/12/14 07:07:27;;;;;;;12.83;8.40;;;9.70;99.90;;;;;;5048318;28;21173;-86
2021/12/14 07:09:57;;;;;;;13.60;9.40;;;9.70;99.90;;;;;;5047393;28;20481;-85
2021/12/14 07:12:36;;;;;;;11.60;8.47;;;9.70;99.90;;;;;;5049876;28;20534;-84
2021/12/14 07:15:15;;;;;;;12.43;8.03;;;9.70;99.90;;;;;;5050203;28;20492;-85
2021/12/14 07:17:49;;;;;;;14.13;8.53;;;9.70;99.90;;;;;;5048425;28;20450;-87
2021/12/14 07:20:33;;;;;;;9.97;7.40;;;9.70;99.90;;;;;;5076595;28;20460;-86
2021/12/14 07:23:16;;;;;;;12.67;8.17;;;9.80;99.90;;;;;;5082184;28;20458;-86
2021/12/14 07:25:44;;;;;;;10.13;7.73;;;9.80;99.90;;;;;;5083288;28;20452;-86
2021/12/14 07:28:16;;;;;;;11.07;8.20;;;9.90;99.90;;;;;;5061979;28;20456;-84
2021/12/14 07:30:49;;;;;;;15.93;9.00;;;9.90;99.90;;;;;;5058306;28;20452;-83
2021/12/14 07:33:21;;;;;;;14.30;9.47;;;9.90;99.90;;;;;;5058846;28;20528;-84
2021/12/14 07:36:13;;;;;;;13.50;8.07;;;9.90;99.90;;;;;;5040996;28;20483;-84
2021/12/14 07:39:16;;;;;;;10.33;7.83;;;9.80;99.90;;;;;;5042379;28;20472;-84
2021/12/14 07:42:05;;;;;;;11.37;8.33;;;9.80;99.90;;;;;;5037054;28;20470;-85
2021/12/14 07:44:44;;;;;;;9.80;7.60;;;9.80;99.90;;;;;;5041017;28;20797;-85
2021/12/14 07:47:19;;;;;;;12.63;8.60;;;9.80;99.90;;;;;;5057044;28;20909;-85
2021/12/14 07:50:12;;;;;;;14.30;9.03;;;9.80;99.90;;;;;;5042177;28;20467;-86
2021/12/14 07:53:07;;;;;;;13.40;9.47;;;9.80;99.90;;;;;;5053517;28;21115;-84
2021/12/14 07:56:19;;;;;;;14.00;9.00;;;9.80;99.90;;;;;;5041475;28;20507;-84
2021/12/14 07:59:13;;;;;;;11.50;7.87;;;9.80;99.90;;;;;;5016780;28;20443;-87
2021/12/14 08:02:27;;;;;;;12.47;8.70;;;9.80;99.90;;;;;;5051528;28;20510;-86
2021/12/14 08:05:12;;;;;;;16.87;7.40;;;9.80;99.90;;;;;;5058438;28;20460;-84
2021/12/14 08:08:17;;;;;;;13.37;9.00;;;9.80;99.90;;;;;;5038253;28;20484;-84
2021/12/14 08:11:16;;;;;;;11.07;7.40;;;9.80;99.90;;;;;;5054302;28;20459;-85
2021/12/14 08:13:49;;;;;;;8.80;7.00;;;9.80;99.90;;;;;;5049207;28;21706;-85
2021/12/14 08:16:32;;;;;;;12.10;7.40;;;9.80;99.90;;;;;;5036284;28;20584;-82
2021/12/14 08:19:55;;;;;;;8.60;5.87;;;9.80;99.90;;;;;;5039377;28;20456;-85
2021/12/14 08:22:42;;;;;;;10.50;7.07;;;9.80;99.90;;;;;;5043375;28;20455;-84
2021/12/14 08:25:28;;;;;;;9.07;6.97;;;9.90;99.90;;;;;;5039722;28;20488;-84
2021/12/14 08:28:05;;;;;;;10.00;6.30;;;9.90;99.90;;;;;;5033327;28;20479;-82
2021/12/14 08:30:35;;;;;;;8.67;6.40;;;9.80;99.90;;;;;;5048177;28;20697;-84
2021/12/14 08:33:03;;;;;;;15.33;6.67;;;9.80;99.90;;;;;;5038476;28;20579;-85
2021/12/14 08:35:31;;;;;;;9.80;5.97;;;9.80;99.90;;;;;;5050969;28;20484;-83
2021/12/14 08:38:01;;;;;;;10.40;5.70;;;9.90;99.90;;;;;;5035333;28;20473;-84
2021/12/14 08:40:39;;;;;;;6.40;5.50;;;9.80;99.90;;;;;;5052691;28;20464;-83
2021/12/14 08:43:20;;;;;;;9.80;6.03;;;9.80;99.90;;;;;;5052697;28;20471;-85
2021/12/14 08:45:54;;;;;;;9.13;5.87;;;9.90;99.90;;;;;;5038033;28;20490;-84
2021/12/14 08:48:31;;;;;;;7.07;5.57;;;9.90;99.90;;;;;;5055049;28;20450;-85
2021/12/14 08:51:14;;;;;;;6.50;5.17;;;9.90;99.90;;;;;;5042094;28;20457;-84
2021/12/14 08:53:48;;;;;;;8.70;6.30;;;9.80;99.90;;;;;;5052142;28;20466;-83
2021/12/14 08:57:02;;;;;;;6.80;4.77;;;9.80;99.90;;;;;;5053253;28;20529;-83
2021/12/14 08:59:30;;;;;;;7.30;5.73;;;9.80;99.90;;;;;;5029230;28;20569;-85
2021/12/14 09:02:00;;;;;;;7.90;5.70;;;9.80;99.90;;;;;;5039691;28;20462;-83
2021/12/14 09:05:13;;;;;;;;;;;;;;;;;;;;;
2021/12/14 09:08:07;;;;;;;6.77;5.77;;;9.90;99.90;;;;;;5038891;28;20428;-83
2021/12/14 09:10:43;;;;;;;7.50;5.50;;;9.90;99.90;;;;;;5039260;28;20543;-84
2021/12/14 09:13:13;;;;;;;7.00;5.00;;;9.90;99.90;;;;;;5054747;28;20452;-83
2021/12/14 09:16:31;;;;;;;10.87;5.80;;;9.90;99.90;;;;;;5056040;28;20490;-83
2021/12/14 09:19:24;;;;;;;7.83;5.00;;;9.90;99.90;;;;;;5069817;28;20436;-84
2021/12/14 09:22:05;;;;;;;7.00;5.00;;;10.00;99.90;;;;;;5081122;28;20452;-85
2021/12/14 09:24:43;;;;;;;8.20;5.43;;;9.90;99.90;;;;;;5081789;28;20455;-85
2021/12/14 09:27:15;;;;;;;8.20;5.10;;;10.00;99.90;;;;;;5081697;28;20524;-86
2021/12/14 09:34:09;;;;;;;7.70;5.80;;;9.90;99.90;;;;;;5039463;28;20497;-86
2021/12/14 09:37:41;;;;;;;8.00;5.40;;;9.90;99.90;;;;;;4926955;29;20521;-84
2021/12/14 09:40:38;;;;;;;7.60;5.17;;;9.90;99.90;;;;;;4993591;28;20433;-84
2021/12/14 09:44:21;;;;;;;6.93;4.73;;;10.00;99.90;;;;;;4982972;28;20896;-84
2021/12/14 09:50:42;;;;;;;6.67;5.27;;;10.00;99.90;;;;;;5077403;28;20447;-83
2021/12/14 09:57:29;;;;;;;7.50;4.83;;;10.00;99.90;;;;;;5077035;28;20578;-84
2021/12/14 10:01:15;;;;;;;7.53;4.57;;;10.00;99.90;;;;;;5077268;28;20437;-85
2021/12/14 10:04:47;;;;;;;6.67;5.20;;;10.00;99.90;;;;;;5078423;28;20545;-87
2021/12/14 10:07:34;;;;;;;8.60;5.30;;;10.00;99.90;;;;;;4953549;28;20460;-87
2021/12/14 10:10:56;;;;;;;8.43;5.50;;;10.00;99.90;;;;;;4889844;29;20456;-87
2021/12/14 10:13:57;;;;;;;6.27;4.90;;;10.10;99.90;;;;;;4950655;28;20552;-84
2021/12/14 10:17:24;;;;;;;6.17;4.80;;;10.10;99.90;;;;;;4912630;28;20508;-87
2021/12/14 10:21:03;;;;;;;6.27;4.80;;;10.10;99.90;;;;;;4917153;28;20457;-86
2021/12/14 10:23:36;;;;;;;6.27;4.70;;;10.10;99.90;;;;;;4914871;28;20457;-86
2021/12/14 10:26:49;;;;;;;6.37;4.43;;;10.10;99.90;;;;;;4940622;28;20501;-87
2021/12/14 10:29:18;;;;;;;8.87;5.80;;;10.10;99.90;;;;;;4943686;28;20462;-87
2021/12/14 10:32:08;;;;;;;7.67;4.83;;;10.10;99.90;;;;;;4925994;28;20613;-86
2021/12/14 10:34:48;;;;;;;8.37;4.80;;;10.10;99.90;;;;;;4927274;28;20457;-88
2021/12/14 10:37:53;;;;;;;7.03;5.13;;;10.10;99.90;;;;;;4942984;28;20465;-85
2021/12/14 10:43:27;;;;;;;6.10;4.97;;;10.10;99.90;;;;;;4991054;28;20558;-87
2021/12/14 10:46:10;;;;;;;8.83;5.40;;;10.10;99.90;;;;;;5080915;28;20531;-87
2021/12/14 10:48:56;;;;;;;7.23;5.47;;;10.00;99.90;;;;;;5083350;28;21051;-85
2021/12/14 10:55:27;;;;;;;8.57;5.17;;;10.20;99.90;;;;;;5077411;28;20481;-87
2021/12/14 10:59:21;;;;;;;7.47;4.80;;;10.30;99.90;;;;;;5069958;27;20482;-86
2021/12/14 11:02:39;;;;;;;6.90;5.00;;;10.20;99.90;;;;;;5044282;28;20457;-86
2021/12/14 11:13:23;;;;;;;9.00;5.80;;;10.10;99.90;;;;;;4999864;28;20855;-85
2021/12/14 11:20:32;;;;;;;;;;;;;;;;;;;;;
2021/12/14 11:23:26;;;;;;;5.33;4.63;;;10.10;99.90;;;;;;5006696;28;20522;-87
2021/12/14 11:26:35;;;;;;;9.10;4.90;;;10.10;99.90;;;;;;5019640;28;20500;-85
2021/12/14 11:29:52;;;;;;;8.60;5.60;;;10.20;99.90;;;;;;5040798;28;20543;-88
2021/12/14 11:33:19;;;;;;;10.77;7.27;;;10.10;99.90;;;;;;5018249;28;20990;-85
2021/12/14 11:39:36;;;;;;;7.83;6.20;;;10.20;99.90;;;;;;5032750;28;20453;-88
2021/12/14 11:42:31;;;;;;;6.50;5.33;;;10.30;99.90;;;;;;5016503;28;20449;-83
2021/12/14 11:45:49;;;;;;;;;;;;;;;;;;;;;
2021/12/14 11:52:12;;;;;;;6.50;5.30;;;10.90;99.90;;;;;;5005646;28;20437;-85
2021/12/14 12:01:27;;;;;;;14.20;8.47;;;10.50;99.90;;;;;;5059578;28;22529;-85
2021/12/14 12:04:49;;;;;;;9.93;7.47;;;10.60;99.90;;;;;;5035791;28;21640;-85
2021/12/14 12:11:24;;;;;;;11.30;6.93;;;11.10;99.90;;;;;;4944685;28;20444;-84
2021/12/14 12:14:30;;;;;;;13.03;6.67;;;11.40;99.90;;;;;;4910556;29;20452;-87
2021/12/14 12:18:02;;;;;;;8.67;6.37;;;11.40;99.90;;;;;;4856864;29;20565;-85
2021/12/14 12:24:43;;;;;;;11.10;5.70;;;10.90;99.90;;;;;;4910042;29;20558;-84
2021/12/14 12:27:41;;;;;;;8.23;6.13;;;10.80;99.90;;;;;;4904965;29;20542;-86
2021/12/14 12:34:24;;;;;;;;;;;;;;;;;;;;;
2021/12/14 12:37:41;;;;;;;;;;;;;;;;;;;;;
2021/12/14 12:41:07;;;;;;;8.80;6.23;;;10.60;99.90;;;;;;4834783;29;20471;-85
2021/12/14 12:44:28;;;;;;;8.70;7.30;;;10.60;99.90;;;;;;4856604;28;20448;-88
2021/12/14 12:47:18;;;;;;;10.13;7.60;;;10.70;99.90;;;;;;5069701;22;21726;-86
2021/12/14 12:50:20;;;;;;;14.07;8.97;;;10.60;99.90;;;;;;5065365;28;20449;-84
2021/12/14 12:53:31;;;;;;;8.83;7.00;;;10.70;99.90;;;;;;5038633;28;20461;-85
2021/12/14 12:56:35;;;;;;;13.93;8.63;;;11.30;99.90;;;;;;5034602;28;20535;-86
2021/12/14 12:59:57;;;;;;;9.43;7.20;;;11.70;99.90;;;;;;5060661;28;21189;-86
2021/12/14 13:02:47;;;;;;;13.57;9.80;;;11.60;99.90;;;;;;5042998;28;20473;-87
2021/12/14 13:06:10;;;;;;;15.50;8.63;;;11.70;99.90;;;;;;5058274;28;20570;-86
2021/12/14 13:09:24;;;;;;;10.73;7.87;;;11.50;99.90;;;;;;4992574;28;20492;-84
2021/12/14 13:12:31;;;;;;;12.57;8.20;;;11.60;99.90;;;;;;5013127;28;21743;-86
2021/12/14 13:18:44;;;;;;;13.30;7.67;;;11.50;99.90;;;;;;5047450;28;20763;-86
2021/12/14 13:22:34;;;;;;;;;;;;;;;;;;;;;
2021/12/14 13:25:36;;;;;;;11.50;8.00;;;11.50;99.90;;;;;;4977654;28;20483;-85
2021/12/14 13:29:11;;;;;;;11.40;7.00;;;11.20;99.90;;;;;;4975540;28;20459;-85
2021/12/14 13:32:36;;;;;;;11.90;7.63;;;11.20;99.90;;;;;;5061064;28;20453;-85
2021/12/14 13:35:31;;;;;;;11.97;9.00;;;11.20;99.90;;;;;;5049041;28;20447;-86
2021/12/14 13:38:43;;;;;;;13.47;7.93;;;11.60;99.90;;;;;;5063067;28;20459;-86
2021/12/14 13:41:57;;;;;;;13.73;8.80;;;11.60;99.90;;;;;;5064466;28;20535;-87
2021/12/14 13:45:05;;;;;;;;;;;;;;;;;;;;;
2021/12/14 13:47:51;;;;;;;15.70;10.30;;;11.20;99.90;;;;;;5071007;28;20522;-88
2021/12/14 13:51:02;;;;;;;10.57;7.67;;;11.40;99.90;;;;;;5053011;28;20467;-87
2021/12/14 13:53:55;;;;;;;16.30;9.10;;;11.50;99.90;;;;;;5075973;28;20463;-85
2021/12/14 13:57:20;;;;;;;10.90;8.30;;;11.70;99.90;;;;;;5067560;28;20491;-87
2021/12/14 14:01:01;;;;;;;10.63;7.87;;;11.70;99.90;;;;;;5062470;28;20511;-85
2021/12/14 14:03:47;;;;;;;12.73;9.43;;;11.50;99.90;;;;;;5056034;28;20448;-86
2021/12/14 14:06:31;;;;;;;14.30;8.80;;;11.40;99.90;;;;;;5077575;28;20478;-86
2021/12/14 14:12:33;;;;;;;11.27;8.03;;;11.50;99.90;;;;;;5061206;28;20932;-85
2021/12/14 14:19:25;;;;;;;12.93;8.80;;;11.50;99.90;;;;;;5056429;28;20471;-86
2021/12/14 14:21:58;;;;;;;16.77;8.90;;;11.40;99.90;;;;;;5072372;28;20479;-85
2021/12/14 14:25:03;;;;;;;17.23;8.87;;;11.40;99.90;;;;;;5055923;28;20487;-84
2021/12/14 14:27:43;;;;;;;12.30;8.63;;;11.30;99.90;;;;;;5060317;28;20486;-86
2021/12/14 14:30:22;;;;;;;14.93;9.87;;;11.30;99.90;;;;;;5060413;28;20449;-83
2021/12/14 14:33:34;;;;;;;12.13;8.70;;;11.20;99.90;;;;;;5077027;28;20470;-85
2021/12/14 14:36:43;;;;;;;12.17;8.43;;;11.40;99.90;;;;;;5077250;27;20685;-87
2021/12/14 14:40:30;;;;;;;;;;;;;;;;;;;;;
2021/12/14 14:43:38;;;;;;;13.80;9.23;;;11.50;99.90;;;;;;5057545;28;20484;-87
2021/12/14 14:46:55;;;;;;;15.17;9.77;;;11.50;99.90;;;;;;5066836;28;20480;-88
2021/12/14 14:49:41;;;;;;;13.23;9.10;;;11.50;99.90;;;;;;5065051;28;20538;-88
2021/12/14 14:55:55;;;;;;;12.10;9.27;;;11.40;99.90;;;;;;5061095;28;20552;-86
2021/12/14 14:58:53;;;;;;;15.63;9.80;;;11.40;99.90;;;;;;5064634;28;20440;-85
2021/12/14 15:02:02;;;;;;;;;;;;;;;;;;;;;
2021/12/14 15:05:30;;;;;;;12.07;7.43;;;11.30;99.90;;;;;;5059941;28;20448;-87
2021/12/14 15:09:17;;;;;;;;;;;;;;;;;;;;;
2021/12/14 15:12:20;;;;;;;12.53;8.50;;;11.20;99.90;;;;;;5027623;28;20958;-87
2021/12/14 15:15:22;;;;;;;12.07;9.40;;;11.00;99.90;;;;;;5055249;28;21524;-87
2021/12/14 15:18:03;;;;;;;13.87;8.43;;;10.90;99.90;;;;;;5057096;28;20467;-87
2021/12/14 15:20:56;;;;;;;9.60;7.67;;;11.20;99.90;;;;;;5074554;28;20518;-88
2021/12/14 15:23:44;;;;;;;13.30;8.20;;;11.10;99.90;;;;;;5049014;28;20452;-86
2021/12/14 15:26:41;;;;;;;12.07;8.47;;;11.10;99.90;;;;;;5036120;28;20471;-83
2021/12/14 15:29:37;;;;;;;11.03;9.03;;;11.10;99.90;;;;;;5040885;28;20527;-87
2021/12/14 15:32:55;;;;;;;11.13;9.17;;;11.10;99.90;;;;;;5045789;28;20457;-87
2021/12/14 15:35:56;;;;;;;12.07;9.13;;;10.90;99.90;;;;;;5031870;28;20487;-86
2021/12/14 15:39:10;;;;;;;14.90;10.67;;;11.20;99.90;;;;;;5060174;28;20480;-87
2021/12/14 15:42:19;;;;;;;13.53;8.70;;;11.00;99.90;;;;;;5058867;28;20433;-87
2021/12/14 15:45:19;;;;;;;14.67;9.77;;;11.20;99.90;;;;;;5060527;28;20551;-84
2021/12/14 15:48:22;;;;;;;14.63;9.93;;;11.20;99.90;;;;;;5060651;28;20487;-85
2021/12/14 15:51:20;;;;;;;13.20;10.67;;;11.20;99.90;;;;;;5068860;28;20457;-86
2021/12/14 16:00:10;;;;;;;16.33;10.20;;;11.30;99.90;;;;;;5056295;28;20488;-86
2021/12/14 16:02:39;;;;;;;12.23;9.10;;;11.30;99.90;;;;;;5058966;28;20459;-85
2021/12/14 16:05:14;;;;;;;10.00;8.63;;;11.10;99.90;;;;;;5070792;28;20544;-83
2021/12/14 16:07:45;;;;;;;14.50;10.07;;;11.00;99.90;;;;;;5072257;28;20733;-84
2021/12/14 16:10:22;;;;;;;14.00;11.90;;;11.30;99.90;;;;;;5070957;28;20512;-84
2021/12/14 16:15:42;;;;;;;14.80;10.77;;;11.30;99.90;;;;;;5058478;28;20476;-86
2021/12/14 16:18:11;;;;;;;13.07;10.43;;;11.30;99.90;;;;;;5070791;28;20475;-86
2021/12/14 16:20:50;;;;;;;16.03;10.30;;;11.30;99.90;;;;;;5058223;28;20463;-84
2021/12/14 16:23:45;;;;;;;12.40;8.73;;;11.40;99.90;;;;;;5014214;28;20445;-83